createdAt,value
2023-09-03T00:00:03.255Z,1020.5
2023-09-03T00:15:02.664Z,1020.5
2023-09-03T00:30:03.191Z,1020.7
2023-09-03T00:45:02.542Z,1021.0
2023-09-03T01:00:03.221Z,1021.0
2023-09-03T01:15:02.443Z,1020.9
2023-09-03T01:30:02.855Z,1021.1
2023-09-03T01:45:02.302Z,1021.1
2023-09-03T02:00:02.738Z,1021.4
2023-09-03T02:15:03.231Z,1021.0
2023-09-03T02:30:02.652Z,1020.5
2023-09-03T02:45:03.225Z,1020.5
2023-09-03T03:00:02.466Z,1020.5
2023-09-03T03:15:02.899Z,1020.7
2023-09-03T03:30:02.312Z,1021.1
2023-09-03T03:45:02.764Z,1021.2
2023-09-03T04:00:03.214Z,1021.2
2023-09-03T04:15:02.660Z,1021.1
2023-09-03T04:30:02.243Z,1021.4
2023-09-03T04:45:02.527Z,1022.0
2023-09-03T05:00:02.968Z,1022.0
2023-09-03T05:15:02.423Z,1022.0
2023-09-03T05:30:02.855Z,1022.3
2023-09-03T05:45:02.305Z,1022.4
2023-09-03T06:00:02.746Z,1022.7
2023-09-03T06:15:03.257Z,1022.9
2023-09-03T06:30:02.627Z,1022.9
2023-09-03T06:45:03.262Z,1023.1
2023-09-03T07:00:02.488Z,1023.1
2023-09-03T07:15:02.950Z,1023.1
2023-09-03T07:30:02.383Z,1023.0
2023-09-03T07:45:02.807Z,1023.0
2023-09-03T08:00:02.268Z,1023.4
2023-09-03T08:15:02.711Z,1023.3
2023-09-03T08:30:03.271Z,1023.4
2023-09-03T08:45:02.589Z,1023.6
2023-09-03T09:00:03.275Z,1023.6
2023-09-03T09:15:02.473Z,1023.7
2023-09-03T09:30:02.927Z,1023.7
2023-09-03T09:45:02.349Z,1023.6
2023-09-03T10:00:02.810Z,1023.7
2023-09-03T10:15:03.313Z,1023.8
2023-09-03T10:30:02.714Z,1023.7
2023-09-03T10:45:03.308Z,1023.8
2023-09-03T11:00:02.552Z,1023.7
2023-09-03T11:15:03.023Z,1024.0
2023-09-03T11:30:02.446Z,1024.0
2023-09-03T11:45:02.889Z,1024.1
2023-09-03T12:00:02.337Z,1024.1
2023-09-03T12:15:02.764Z,1024.0
2023-09-03T12:30:02.318Z,1024.0
2023-09-03T12:45:02.653Z,1023.7
2023-09-03T13:00:03.324Z,1023.7
2023-09-03T13:15:02.536Z,1023.7
2023-09-03T13:30:02.979Z,1023.6
2023-09-03T13:45:02.413Z,1023.7
2023-09-03T14:00:03.001Z,1023.7
2023-09-03T14:15:02.383Z,1023.5
2023-09-03T14:30:02.758Z,1023.3
2023-09-03T14:45:03.340Z,1023.3
2023-09-03T15:00:02.639Z,1023.5
2023-09-03T15:15:03.288Z,1023.6
2023-09-03T15:30:02.564Z,1023.4
2023-09-03T15:45:02.966Z,1023.4
2023-09-03T16:00:02.467Z,1023.6
2023-09-03T16:15:02.840Z,1023.4
2023-09-03T16:30:02.426Z,1023.5
2023-09-03T16:45:02.719Z,1023.4
2023-09-03T17:00:03.364Z,1023.4
2023-09-03T17:15:02.646Z,1023.6
2023-09-03T17:30:03.061Z,1023.7
2023-09-03T17:45:02.520Z,1023.8
2023-09-03T18:00:02.947Z,1024.0
2023-09-03T18:15:02.375Z,1024.0
2023-09-03T18:30:02.827Z,1024.0
2023-09-03T18:45:02.356Z,1024.0
2023-09-03T19:00:02.720Z,1023.9
2023-09-03T19:15:03.382Z,1023.9
2023-09-03T19:30:02.603Z,1024.0
2023-09-03T19:45:03.026Z,1023.8
2023-09-03T20:00:02.456Z,1023.8
2023-09-03T20:15:02.911Z,1023.8
2023-09-03T20:30:02.397Z,1023.7
2023-09-03T20:45:02.774Z,1023.8
2023-09-03T21:00:03.407Z,1023.7
2023-09-03T21:15:02.650Z,1023.8
2023-09-03T21:30:03.139Z,1023.8
2023-09-03T21:45:02.530Z,1023.7
2023-09-03T22:00:02.989Z,1023.7
2023-09-03T22:15:02.433Z,1023.9
2023-09-03T22:30:02.870Z,1024.0
2023-09-03T22:45:02.420Z,1024.0
2023-09-03T23:00:02.731Z,1023.9
2023-09-03T23:15:03.172Z,1023.9
2023-09-03T23:30:02.618Z,1023.9
2023-09-03T23:45:03.046Z,1024.0
